Check out our new BloomSky Weather System.

Active alerts


No alerts


Thunder radar  blitzortung!


Rain radar more information rain snow radar


Visit our other weather sites:

Template documentation
and downloads

And another site



Weather Underground History page Text

Daily Summary for March 11, 2017 Units:  Metric    English   Both
« Previous Day
Next Day »
Daily Weekly Monthly Yearly Custom
  High: Low: Average:
Temperature: 20.9 °C 17.4 °C 19.3 °C
Dew Point: 20.4 °C 16.8 °C 18.9 °C
Humidity: 99 % 93 % 98 %
Wind Speed: 11.3 km/h 0 km/h 1.6 km/h
Wind Gust: 29 km/h - -
Wind:- - SE
Pressure: 1019.9 hPa 1015.8 hPa -
Precipitation: 26.92 mm    
Historical Graphs
 
 
Tabular Data for March 11, 2017
Time Temperature Dew Point Pressure Wind Wind Speed Wind Gust Humidity Rainfall Rate (Hourly)
00:01 19.5 °C 19 °C 1019.9 hPa Calm   3.2 km/h 97 % 0 mm
00:06 19.5 °C 19 °C 1019.5 hPa Calm   3.2 km/h 97 % 0 mm
00:11 19.4 °C 18.9 °C 1019.5 hPa SSW 1.6 km/h 3.2 km/h 97 % 0 mm
00:16 19.3 °C 18.8 °C 1019.5 hPa Calm   1.6 km/h 97 % 0 mm
00:21 19.3 °C 18.8 °C 1019.5 hPa Calm   1.6 km/h 97 % 0 mm
00:26 19.3 °C 19 °C 1019.5 hPa Calm   1.6 km/h 98 % 0 mm
00:31 19.4 °C 19.1 °C 1019.5 hPa Calm   1.6 km/h 98 % 0 mm
00:36 19.3 °C 18.8 °C 1019.5 hPa Calm   1.6 km/h 97 % 0 mm
00:41 19.2 °C 18.7 °C 1019.5 hPa Calm   1.6 km/h 97 % 0 mm
00:46 19.3 °C 19 °C 1019.5 hPa Calm     98 % 0 mm
00:51 19.3 °C 19 °C 1019.5 hPa Calm   1.6 km/h 98 % 0 mm
00:56 19.3 °C 18.8 °C 1019.5 hPa Calm   1.6 km/h 97 % 0 mm
01:01 19.3 °C 19 °C 1019.2 hPa South 1.6 km/h 1.6 km/h 98 % 0 mm
01:07 19.3 °C 19 °C 1019.2 hPa South 1.6 km/h 1.6 km/h 98 % 0 mm
01:12 19.3 °C 19 °C 1018.8 hPa Calm   1.6 km/h 98 % 0 mm
01:17 19.3 °C 19 °C 1018.8 hPa Calm   1.6 km/h 98 % 0 mm
01:22 19.3 °C 19 °C 1018.8 hPa South 1.6 km/h 1.6 km/h 98 % 0 mm
01:27 19.4 °C 19.1 °C 1018.5 hPa Calm   3.2 km/h 98 % 0 mm
01:32 19.4 °C 19.1 °C 1018.5 hPa Calm   3.2 km/h 98 % 0 mm
01:37 19.4 °C 19.1 °C 1018.5 hPa Calm   3.2 km/h 98 % 0 mm
01:42 19.3 °C 19 °C 1018.5 hPa Calm   1.6 km/h 98 % 0 mm
01:47 19.2 °C 18.9 °C 1018.5 hPa Calm   1.6 km/h 98 % 0 mm
01:52 19.1 °C 18.8 °C 1018.8 hPa Calm   1.6 km/h 98 % 0 mm
01:57 19.1 °C 18.8 °C 1018.8 hPa Calm   1.6 km/h 98 % 0 mm
02:02 19.1 °C 18.8 °C 1018.8 hPa Calm   1.6 km/h 98 % 0 mm
02:07 19.1 °C 18.8 °C 1018.8 hPa Calm     98 % 0 mm
02:12 19.1 °C 18.8 °C 1018.8 hPa Calm     98 % 0 mm
02:17 19 °C 18.7 °C 1018.8 hPa Calm   1.6 km/h 98 % 0 mm
02:22 19 °C 18.7 °C 1018.8 hPa Calm   1.6 km/h 98 % 0 mm
02:27 19 °C 18.7 °C 1018.8 hPa Calm   1.6 km/h 98 % 0 mm
02:32 18.9 °C 18.6 °C 1018.5 hPa Calm   1.6 km/h 98 % 0 mm
02:37 18.9 °C 18.6 °C 1018.5 hPa Calm   1.6 km/h 98 % 0 mm
02:42 19 °C 18.7 °C 1018.8 hPa Calm     98 % 0 mm
02:47 19 °C 18.7 °C 1018.5 hPa Calm     98 % 0 mm
02:52 19 °C 18.7 °C 1018.5 hPa Calm     98 % 0 mm
02:57 18.9 °C 18.6 °C 1018.5 hPa Calm     98 % 0 mm
03:02 18.9 °C 18.6 °C 1018.5 hPa Calm     98 % 0 mm
03:07 18.9 °C 18.6 °C 1018.5 hPa Calm     98 % 0 mm
03:12 19 °C 18.7 °C 1018.5 hPa Calm     98 % 0 mm
03:17 19.1 °C 18.8 °C 1018.2 hPa Calm   1.6 km/h 98 % 0 mm
03:22 19.1 °C 18.8 °C 1018.2 hPa Calm   1.6 km/h 98 % 0 mm
03:27 19.1 °C 18.8 °C 1018.2 hPa Calm   1.6 km/h 98 % 0 mm
03:32 19.1 °C 18.8 °C 1018.2 hPa Calm   1.6 km/h 98 % 0 mm
03:37 19.1 °C 18.8 °C 1017.8 hPa Calm   1.6 km/h 98 % 0 mm
03:42 19.1 °C 18.8 °C 1018.2 hPa Calm   1.6 km/h 98 % 0 mm
03:47 19.1 °C 18.9 °C 1018.2 hPa SW 1.6 km/h 1.6 km/h 99 % 0 mm
03:52 19.2 °C 19 °C 1018.5 hPa North 1.6 km/h 4.8 km/h 99 % 0 mm
03:57 19.2 °C 19 °C 1018.5 hPa Calm   4.8 km/h 99 % 0 mm
04:02 19.3 °C 19.1 °C 1018.5 hPa Calm   4.8 km/h 99 % 0 mm
04:07 19.3 °C 19.1 °C 1018.5 hPa SSE 1.6 km/h 4.8 km/h 99 % 0 mm
04:12 19.4 °C 19.2 °C 1018.5 hPa SSE 1.6 km/h 1.6 km/h 99 % 0 mm
04:17 19.4 °C 19.2 °C 1018.5 hPa Calm   1.6 km/h 99 % 0 mm
04:22 19.4 °C 19.2 °C 1018.2 hPa Calm   1.6 km/h 99 % 0 mm
04:27 19.3 °C 19.1 °C 1018.2 hPa Calm   1.6 km/h 99 % 0 mm
04:33 19.3 °C 19.1 °C 1018.2 hPa Calm   1.6 km/h 99 % 0 mm
04:38 19.3 °C 19.1 °C 1018.2 hPa Calm     99 % 0 mm
04:43 19.3 °C 19.1 °C 1018.2 hPa Calm     99 % 0 mm
04:48 19.2 °C 19 °C 1018.2 hPa Calm     99 % 0 mm
04:53 19.2 °C 19 °C 1018.2 hPa Calm     99 % 0 mm
04:58 19.2 °C 19 °C 1018.2 hPa SSE 1.6 km/h 1.6 km/h 99 % 0 mm
05:03 19.2 °C 19 °C 1018.5 hPa NNW 1.6 km/h 3.2 km/h 99 % 0 mm
05:08 19.2 °C 19 °C 1018.5 hPa Calm   3.2 km/h 99 % 0 mm
05:13 19.2 °C 19 °C 1018.5 hPa Calm   4.8 km/h 99 % 0 mm
05:18 19.2 °C 19 °C 1018.2 hPa NNW 1.6 km/h 4.8 km/h 99 % 0 mm
05:23 19.2 °C 19 °C 1018.5 hPa Calm   4.8 km/h 99 % 0.25 mm
05:28 19.3 °C 19.1 °C 1018.5 hPa ENE 1.6 km/h 3.2 km/h 99 % 0.25 mm
05:33 19.4 °C 19.2 °C 1018.5 hPa NNW 1.6 km/h 6.4 km/h 99 % 0.25 mm
05:38 19.4 °C 19.2 °C 1018.5 hPa NNW 1.6 km/h 6.4 km/h 99 % 0.25 mm
05:43 19.4 °C 19.2 °C 1018.5 hPa Calm   6.4 km/h 99 % 0.25 mm
05:48 19.4 °C 19.2 °C 1018.5 hPa NW 1.6 km/h 6.4 km/h 99 % 0.25 mm
05:49 19.4 °C 19.2 °C 1018.5 hPa Calm   6.4 km/h 99 % 0.25 mm
05:54 19.5 °C 19.3 °C 1018.5 hPa Calm   6.4 km/h 99 % 0.25 mm
05:59 19.5 °C 19.3 °C 1018.5 hPa NNW 3.2 km/h 6.4 km/h 99 % 0.25 mm
06:04 19.5 °C 19.3 °C 1018.8 hPa NNE 3.2 km/h 6.4 km/h 99 % 0.25 mm
06:09 19.5 °C 19.3 °C 1018.8 hPa East 1.6 km/h 6.4 km/h 99 % 0.25 mm
06:14 19.5 °C 19.3 °C 1018.8 hPa Calm   6.4 km/h 99 % 0.25 mm
06:19 19.5 °C 19.3 °C 1018.8 hPa Calm   3.2 km/h 99 % 0.25 mm
06:24 19.5 °C 19.3 °C 1018.8 hPa Calm   3.2 km/h 99 % 0 mm
06:29 19.5 °C 19.3 °C 1018.8 hPa Calm   3.2 km/h 99 % 0 mm
06:34 19.5 °C 19.3 °C 1018.8 hPa East 1.6 km/h 3.2 km/h 99 % 0 mm
06:39 19.5 °C 19.3 °C 1018.8 hPa Calm   3.2 km/h 99 % 0 mm
06:44 19.5 °C 19.3 °C 1018.8 hPa Calm   3.2 km/h 99 % 0 mm
06:49 19.5 °C 19.3 °C 1018.8 hPa Calm   3.2 km/h 99 % 0 mm
06:54 19.5 °C 19.3 °C 1018.8 hPa Calm   1.6 km/h 99 % 0.25 mm
06:59 19.5 °C 19.3 °C 1018.8 hPa Calm   1.6 km/h 99 % 0.25 mm
07:04 19.4 °C 19.2 °C 1019.2 hPa Calm   1.6 km/h 99 % 0.25 mm
07:09 19.5 °C 19.3 °C 1019.2 hPa SE 1.6 km/h 1.6 km/h 99 % 0.25 mm
07:14 19.6 °C 19.4 °C 1019.5 hPa SSE 1.6 km/h 3.2 km/h 99 % 0.25 mm
07:19 19.6 °C 19.4 °C 1019.2 hPa SE 1.6 km/h 3.2 km/h 99 % 0.25 mm
07:24 19.6 °C 19.4 °C 1019.5 hPa Calm   3.2 km/h 99 % 0.25 mm
07:29 19.6 °C 19.4 °C 1019.2 hPa Calm   3.2 km/h 99 % 0.25 mm
07:34 19.6 °C 19.4 °C 1019.5 hPa Calm   3.2 km/h 99 % 0.25 mm
07:39 19.6 °C 19.4 °C 1019.5 hPa Calm   3.2 km/h 99 % 0.51 mm
07:44 19.7 °C 19.5 °C 1019.2 hPa Calm   3.2 km/h 99 % 0.51 mm
07:49 19.7 °C 19.5 °C 1019.2 hPa ENE 1.6 km/h 1.6 km/h 99 % 0.51 mm
07:54 19.8 °C 19.6 °C 1019.2 hPa North 1.6 km/h 1.6 km/h 99 % 0.25 mm
07:59 19.8 °C 19.6 °C 1018.8 hPa NW 3.2 km/h 4.8 km/h 99 % 0.51 mm
08:04 19.8 °C 19.6 °C 1018.8 hPa Calm   4.8 km/h 99 % 0.51 mm
08:09 19.8 °C 19.6 °C 1019.2 hPa Calm   4.8 km/h 99 % 0.51 mm
08:14 19.8 °C 19.6 °C 1018.8 hPa NNE 4.8 km/h 4.8 km/h 99 % 0.51 mm
08:19 19.8 °C 19.6 °C 1019.2 hPa NNW 1.6 km/h 6.4 km/h 99 % 0.51 mm
08:24 19.8 °C 19.6 °C 1019.2 hPa Calm   6.4 km/h 99 % 0.51 mm
08:29 19.9 °C 19.7 °C 1019.2 hPa NE 1.6 km/h 6.4 km/h 99 % 0.51 mm
08:34 19.8 °C 19.6 °C 1019.2 hPa NNE 1.6 km/h 6.4 km/h 99 % 0.25 mm
08:39 19.8 °C 19.6 °C 1019.2 hPa ENE 1.6 km/h 6.4 km/h 99 % 0.25 mm
08:44 19.8 °C 19.6 °C 1019.2 hPa Calm   6.4 km/h 99 % 0.25 mm
08:49 19.8 °C 19.6 °C 1019.2 hPa Calm   6.4 km/h 99 % 0.25 mm
08:54 19.8 °C 19.6 °C 1019.2 hPa East 3.2 km/h 6.4 km/h 99 % 0.25 mm
08:59 19.9 °C 19.7 °C 1019.2 hPa NNE 3.2 km/h 4.8 km/h 99 % 0 mm
09:04 19.9 °C 19.7 °C 1019.2 hPa Calm   4.8 km/h 99 % 0.25 mm
09:09 19.9 °C 19.7 °C 1019.2 hPa ENE 1.6 km/h 4.8 km/h 99 % 0.25 mm
09:15 19.9 °C 19.7 °C 1019.2 hPa NNE 1.6 km/h 4.8 km/h 99 % 0.25 mm
09:20 19.9 °C 19.7 °C 1019.2 hPa East 4.8 km/h 8 km/h 99 % 0.25 mm
09:25 19.9 °C 19.7 °C 1019.2 hPa Calm   8 km/h 99 % 0.51 mm
09:30 20 °C 19.8 °C 1019.2 hPa ESE 1.6 km/h 8 km/h 99 % 0.51 mm
09:35 20.1 °C 19.9 °C 1019.2 hPa Calm   6.4 km/h 99 % 0.51 mm
09:40 20.1 °C 19.9 °C 1019.2 hPa SE 1.6 km/h 6.4 km/h 99 % 0.51 mm
09:45 20.1 °C 19.9 °C 1019.2 hPa ENE 3.2 km/h 4.8 km/h 99 % 0.51 mm
09:50 20.1 °C 19.9 °C 1019.2 hPa Calm   6.4 km/h 99 % 0.76 mm
09:55 20.1 °C 19.9 °C 1019.2 hPa East 8 km/h 8 km/h 99 % 0.76 mm
10:00 20.1 °C 19.9 °C 1019.2 hPa SE 1.6 km/h 8 km/h 99 % 0.51 mm
10:05 20.1 °C 19.9 °C 1019.2 hPa Calm   8 km/h 99 % 0.51 mm
10:10 20.1 °C 19.9 °C 1019.2 hPa SE 1.6 km/h 8 km/h 99 % 0.51 mm
10:15 20.1 °C 19.9 °C 1019.2 hPa SE 1.6 km/h 8 km/h 99 % 0.76 mm
10:20 20.2 °C 20 °C 1019.2 hPa ESE 1.6 km/h 8 km/h 99 % 0.51 mm
10:25 20.3 °C 20.1 °C 1019.2 hPa ESE 1.6 km/h 8 km/h 99 % 0.51 mm
10:30 20.3 °C 20.1 °C 1019.2 hPa East 3.2 km/h 6.4 km/h 99 % 0.51 mm
10:35 20.4 °C 20.2 °C 1019.2 hPa ENE 1.6 km/h 6.4 km/h 99 % 0.76 mm
10:40 20.4 °C 20.2 °C 1018.8 hPa ENE 6.4 km/h 9.7 km/h 99 % 0.76 mm
10:45 20.3 °C 20.1 °C 1018.8 hPa East 4.8 km/h 12.9 km/h 99 % 0.76 mm
10:50 20.3 °C 20.1 °C 1018.8 hPa East 1.6 km/h 12.9 km/h 99 % 0.51 mm
10:55 20.3 °C 20.1 °C 1018.8 hPa SE 4.8 km/h 12.9 km/h 99 % 0.51 mm
11:00 20.3 °C 20.1 °C 1018.8 hPa Calm   11.3 km/h 99 % 0.51 mm
11:05 20.4 °C 20.2 °C 1018.8 hPa SE 8 km/h 11.3 km/h 99 % 0.51 mm
11:10 20.4 °C 20.1 °C 1018.8 hPa ENE 8 km/h 11.3 km/h 98 % 0.25 mm
11:15 20.4 °C 20.1 °C 1018.8 hPa Calm   11.3 km/h 98 % 0.25 mm
11:20 20.5 °C 20.2 °C 1018.8 hPa Calm   11.3 km/h 98 % 0.25 mm
11:25 20.6 °C 20.3 °C 1018.8 hPa NNW 1.6 km/h 11.3 km/h 98 % 0.25 mm
11:30 20.7 °C 20.4 °C 1018.8 hPa East 8 km/h 9.7 km/h 98 % 0.25 mm
11:35 20.7 °C 20.2 °C 1018.8 hPa NNW 3.2 km/h 9.7 km/h 97 % 0 mm
11:40 20.8 °C 20.3 °C 1018.8 hPa East 1.6 km/h 8 km/h 97 % 0 mm
11:45 20.7 °C 20.2 °C 1018.5 hPa ESE 4.8 km/h 9.7 km/h 97 % 0 mm
11:50 20.8 °C 20.3 °C 1018.5 hPa ESE 3.2 km/h 9.7 km/h 97 % 0 mm
11:55 20.9 °C 20.4 °C 1018.5 hPa ENE 3.2 km/h 9.7 km/h 97 % 0 mm
12:00 20.9 °C 20.2 °C 1018.5 hPa SE 6.4 km/h 9.7 km/h 96 % 0 mm
12:05 20.9 °C 20.1 °C 1018.5 hPa ESE 3.2 km/h 11.3 km/h 95 % 0 mm
12:10 20.9 °C 20.1 °C 1018.5 hPa ENE 4.8 km/h 11.3 km/h 95 % 0.25 mm
12:11 20.9 °C 20.1 °C 1018.5 hPa East 1.6 km/h 11.3 km/h 95 % 0.25 mm
12:16 20.9 °C 20.1 °C 1018.5 hPa Calm   11.3 km/h 95 % 0.25 mm
12:21 20.9 °C 20.1 °C 1018.5 hPa Calm   11.3 km/h 95 % 0.25 mm
12:26 20.9 °C 20.1 °C 1018.2 hPa ESE 1.6 km/h 9.7 km/h 95 % 0.51 mm
12:31 20.9 °C 20.1 °C 1018.2 hPa East 1.6 km/h 9.7 km/h 95 % 0.76 mm
12:36 20.9 °C 20.1 °C 1018.2 hPa East 4.8 km/h 9.7 km/h 95 % 0.76 mm
12:41 20.9 °C 20.1 °C 1018.2 hPa East 1.6 km/h 9.7 km/h 95 % 1.02 mm
12:47 20.8 °C 20 °C 1017.8 hPa Calm   9.7 km/h 95 % 1.27 mm
12:52 20.7 °C 19.9 °C 1017.8 hPa East 3.2 km/h 8 km/h 95 % 1.52 mm
12:57 20.6 °C 19.8 °C 1017.8 hPa East 1.6 km/h 8 km/h 95 % 1.78 mm
13:02 20.6 °C 19.8 °C 1017.8 hPa ESE 1.6 km/h 8 km/h 95 % 1.78 mm
13:07 20.6 °C 19.8 °C 1017.8 hPa ENE 1.6 km/h 6.4 km/h 95 % 2.29 mm
13:12 20.6 °C 19.9 °C 1017.8 hPa Calm   4.8 km/h 96 % 2.29 mm
13:17 20.6 °C 19.9 °C 1017.5 hPa Calm   4.8 km/h 96 % 2.79 mm
13:22 20.6 °C 19.9 °C 1017.5 hPa Calm   4.8 km/h 96 % 3.05 mm
13:27 20.4 °C 19.6 °C 1017.5 hPa ESE 3.2 km/h 4.8 km/h 95 % 3.05 mm
13:32 20.3 °C 19.6 °C 1017.5 hPa East 1.6 km/h 9.7 km/h 96 % 3.3 mm
13:37 20.2 °C 19.5 °C 1017.5 hPa Calm   9.7 km/h 96 % 4.32 mm
13:42 20.1 °C 19.4 °C 1017.5 hPa SSE 1.6 km/h 9.7 km/h 96 % 4.57 mm
13:47 20 °C 19.3 °C 1017.5 hPa NE 3.2 km/h 8 km/h 96 % 6.1 mm
13:52 19.8 °C 19.1 °C 1017.2 hPa Calm   8 km/h 96 % 6.6 mm
13:57 19.8 °C 19.1 °C 1017.2 hPa South 8 km/h 9.7 km/h 96 % 7.62 mm
14:02 19.7 °C 19 °C 1017.2 hPa East 3.2 km/h 17.7 km/h 96 % 7.87 mm
14:07 19.7 °C 19 °C 1017.2 hPa NE 1.6 km/h 17.7 km/h 96 % 8.13 mm
14:12 19.7 °C 19.2 °C 1017.2 hPa NNW 1.6 km/h 17.7 km/h 97 % 8.38 mm
14:17 19.7 °C 19.2 °C 1017.2 hPa NNE 6.4 km/h 8 km/h 97 % 8.38 mm
14:22 19.7 °C 19.2 °C 1016.8 hPa Calm   9.7 km/h 97 % 8.64 mm
14:27 19.8 °C 19.3 °C 1016.8 hPa Calm   9.7 km/h 97 % 8.64 mm
14:32 19.6 °C 18.9 °C 1016.8 hPa SE 3.2 km/h 17.7 km/h 96 % 8.38 mm
14:37 19.3 °C 18.6 °C 1016.8 hPa ENE 8 km/h 20.9 km/h 96 % 7.62 mm
14:42 19.3 °C 18.6 °C 1016.8 hPa Calm   20.9 km/h 96 % 7.11 mm
14:47 19.3 °C 18.6 °C 1016.5 hPa NNW 4.8 km/h 20.9 km/h 96 % 5.59 mm
14:52 19.3 °C 18.6 °C 1016.5 hPa NE 3.2 km/h 12.9 km/h 96 % 4.83 mm
14:57 19.3 °C 18.6 °C 1016.5 hPa Calm   9.7 km/h 96 % 4.06 mm
15:02 19.4 °C 18.7 °C 1016.5 hPa SE 1.6 km/h 11.3 km/h 96 % 3.81 mm
15:07 19.5 °C 19 °C 1016.5 hPa Calm   11.3 km/h 97 % 3.3 mm
15:12 19.6 °C 19.1 °C 1016.5 hPa Calm   11.3 km/h 97 % 3.05 mm
15:17 19.7 °C 19.2 °C 1016.1 hPa WNW 1.6 km/h 9.7 km/h 97 % 2.54 mm
15:22 19.8 °C 19.3 °C 1016.1 hPa Calm   9.7 km/h 97 % 2.29 mm
15:27 19.8 °C 19.3 °C 1016.1 hPa NE 1.6 km/h 9.7 km/h 97 % 2.54 mm
15:32 19.8 °C 19.3 °C 1016.1 hPa Calm   9.7 km/h 97 % 2.29 mm
15:37 19.8 °C 19.3 °C 1016.1 hPa East 1.6 km/h 9.7 km/h 97 % 2.29 mm
15:42 19.7 °C 19.2 °C 1016.1 hPa East 4.8 km/h 9.7 km/h 97 % 2.03 mm
15:47 19.7 °C 19.2 °C 1015.8 hPa ENE 4.8 km/h 9.7 km/h 97 % 2.03 mm
15:52 19.7 °C 19.2 °C 1016.1 hPa Calm   12.9 km/h 97 % 1.78 mm
15:57 19.7 °C 19.2 °C 1016.1 hPa SE 4.8 km/h 12.9 km/h 97 % 1.52 mm
16:02 19.3 °C 18.5 °C 1016.5 hPa SE 11.3 km/h 14.5 km/h 95 % 2.03 mm
16:07 18.8 °C 18 °C 1016.5 hPa ENE 11.3 km/h 19.3 km/h 95 % 3.81 mm
16:12 18.4 °C 17.2 °C 1016.5 hPa ENE 8 km/h 29 km/h 93 % 3.81 mm
16:17 18.2 °C 17.2 °C 1016.1 hPa SE 4.8 km/h 29 km/h 94 % 4.57 mm
16:22 18.1 °C 17.1 °C 1016.1 hPa Calm   29 km/h 94 % 5.59 mm
16:27 17.8 °C 16.8 °C 1015.8 hPa East 4.8 km/h 11.3 km/h 94 % 5.84 mm
16:32 17.8 °C 16.8 °C 1015.8 hPa East 1.6 km/h 11.3 km/h 94 % 6.1 mm
16:37 18 °C 17.2 °C 1015.8 hPa NNE 3.2 km/h 11.3 km/h 95 % 6.1 mm
16:42 18.3 °C 17.5 °C 1015.8 hPa North 1.6 km/h 11.3 km/h 95 % 6.1 mm
16:47 18.5 °C 17.8 °C 1015.8 hPa Calm   8 km/h 96 % 6.1 mm
16:52 18.7 °C 18 °C 1015.8 hPa Calm   4.8 km/h 96 % 6.1 mm
16:57 18.9 °C 18.2 °C 1015.8 hPa NE 3.2 km/h 4.8 km/h 96 % 6.1 mm
17:02 19.2 °C 18.7 °C 1015.8 hPa Calm   4.8 km/h 97 % 5.59 mm
17:07 19.3 °C 18.8 °C 1015.8 hPa NE 1.6 km/h 8 km/h 97 % 3.56 mm
17:08 19.3 °C 18.8 °C 1015.8 hPa ENE 6.4 km/h 8 km/h 97 % 3.56 mm
17:13 19.4 °C 18.9 °C 1015.8 hPa North 3.2 km/h 8 km/h 97 % 3.3 mm
17:18 19.5 °C 19 °C 1015.8 hPa NNW 3.2 km/h 8 km/h 97 % 2.54 mm
17:23 19.6 °C 19.1 °C 1015.8 hPa NNE 1.6 km/h 6.4 km/h 97 % 1.27 mm
17:28 19.5 °C 19 °C 1015.8 hPa NNE 1.6 km/h 8 km/h 97 % 0.25 mm
17:33 19.5 °C 19 °C 1015.8 hPa ENE 3.2 km/h 8 km/h 97 % 0.25 mm
17:38 19.5 °C 19 °C 1015.8 hPa NE 1.6 km/h 8 km/h 97 % 0 mm
17:43 19.5 °C 19 °C 1015.8 hPa North 1.6 km/h 8 km/h 97 % 0 mm
17:48 19.5 °C 19 °C 1015.8 hPa NNW 1.6 km/h 8 km/h 97 % 0 mm
17:53 19.4 °C 18.9 °C 1015.8 hPa North 3.2 km/h 8 km/h 97 % 0 mm
17:58 19.4 °C 18.9 °C 1015.8 hPa North 4.8 km/h 8 km/h 97 % 0 mm
18:03 19.4 °C 18.9 °C 1016.1 hPa NNW 1.6 km/h 8 km/h 97 % 0 mm
18:08 19.3 °C 18.8 °C 1016.1 hPa Calm   9.7 km/h 97 % 0 mm
18:13 19.3 °C 18.8 °C 1016.1 hPa Calm   9.7 km/h 97 % 0 mm
18:18 19.3 °C 18.8 °C 1016.1 hPa Calm   9.7 km/h 97 % 0 mm
18:23 19.2 °C 18.7 °C 1016.1 hPa NNE 1.6 km/h 6.4 km/h 97 % 0 mm
18:28 19.2 °C 18.7 °C 1016.1 hPa Calm   6.4 km/h 97 % 0 mm
18:33 19.2 °C 18.7 °C 1016.1 hPa Calm   6.4 km/h 97 % 0 mm
18:38 19.1 °C 18.6 °C 1016.1 hPa East 1.6 km/h 6.4 km/h 97 % 0 mm
18:43 19.1 °C 18.6 °C 1016.5 hPa Calm   8 km/h 97 % 0 mm
18:48 19.1 °C 18.6 °C 1016.1 hPa NE 1.6 km/h 8 km/h 97 % 0 mm
18:53 19.1 °C 18.6 °C 1016.1 hPa East 3.2 km/h 8 km/h 97 % 0 mm
18:58 19.1 °C 18.6 °C 1016.1 hPa Calm   4.8 km/h 97 % 0 mm
19:03 19 °C 18.5 °C 1016.5 hPa Calm   4.8 km/h 97 % 0.25 mm
19:08 19 °C 18.5 °C 1016.5 hPa Calm   4.8 km/h 97 % 0.25 mm
19:13 19 °C 18.7 °C 1016.5 hPa Calm   4.8 km/h 98 % 0.25 mm
19:18 19 °C 18.7 °C 1016.5 hPa NNE 3.2 km/h 4.8 km/h 98 % 0.25 mm
19:23 19 °C 18.7 °C 1016.5 hPa Calm   4.8 km/h 98 % 0.25 mm
19:28 19 °C 18.7 °C 1016.5 hPa North 1.6 km/h 4.8 km/h 98 % 0.51 mm
19:33 19 °C 18.7 °C 1016.5 hPa NNW 1.6 km/h 4.8 km/h 98 % 0.51 mm
19:38 19 °C 18.7 °C 1016.5 hPa North 3.2 km/h 4.8 km/h 98 % 0.51 mm
19:43 18.9 °C 18.6 °C 1016.8 hPa NNW 4.8 km/h 4.8 km/h 98 % 0.51 mm
19:48 18.9 °C 18.6 °C 1017.2 hPa Calm   6.4 km/h 98 % 0.51 mm
19:53 18.9 °C 18.6 °C 1017.2 hPa NNW 1.6 km/h 6.4 km/h 98 % 0.51 mm
19:58 18.9 °C 18.6 °C 1017.2 hPa NNW 1.6 km/h 8 km/h 98 % 0.51 mm
20:03 18.8 °C 18.5 °C 1017.5 hPa NNW 1.6 km/h 8 km/h 98 % 0.25 mm
20:08 18.8 °C 18.5 °C 1017.2 hPa NW 3.2 km/h 8 km/h 98 % 0.25 mm
20:13 18.7 °C 18.4 °C 1017.2 hPa NE 3.2 km/h 9.7 km/h 98 % 0.25 mm
20:18 18.6 °C 18.3 °C 1017.5 hPa NNE 3.2 km/h 9.7 km/h 98 % 0.25 mm
20:23 18.6 °C 18.3 °C 1017.5 hPa North 3.2 km/h 9.7 km/h 98 % 0.51 mm
20:28 18.5 °C 18.2 °C 1017.5 hPa Calm   8 km/h 98 % 0.25 mm
20:33 18.4 °C 18.1 °C 1017.5 hPa NE 1.6 km/h 8 km/h 98 % 0.25 mm
20:38 18.4 °C 18.1 °C 1017.5 hPa North 1.6 km/h 8 km/h 98 % 0.25 mm
20:43 18.4 °C 18.1 °C 1017.5 hPa NE 1.6 km/h 6.4 km/h 98 % 0.25 mm
20:48 18.3 °C 18 °C 1017.5 hPa NNE 1.6 km/h 4.8 km/h 98 % 0.25 mm
20:53 18.3 °C 18 °C 1017.5 hPa North 4.8 km/h 6.4 km/h 98 % 0.25 mm
20:58 18.3 °C 18 °C 1017.5 hPa North 1.6 km/h 6.4 km/h 98 % 0.25 mm
21:03 18.3 °C 18 °C 1017.5 hPa Calm   6.4 km/h 98 % 0.25 mm
21:08 18.3 °C 18 °C 1017.8 hPa North 3.2 km/h 6.4 km/h 98 % 0.25 mm
21:13 18.3 °C 18 °C 1017.8 hPa Calm   6.4 km/h 98 % 0.25 mm
21:18 18.3 °C 18 °C 1017.8 hPa North 3.2 km/h 6.4 km/h 98 % 0 mm
21:23 18.3 °C 18 °C 1017.8 hPa NNE 1.6 km/h 6.4 km/h 98 % 0 mm
21:28 18.4 °C 18.1 °C 1017.8 hPa NE 9.7 km/h 9.7 km/h 98 % 0.25 mm
21:33 18.4 °C 18.1 °C 1017.8 hPa SE 6.4 km/h 9.7 km/h 98 % 0.25 mm
21:38 18.4 °C 18.1 °C 1017.8 hPa East 6.4 km/h 9.7 km/h 98 % 0.25 mm
21:44 18.4 °C 18.1 °C 1018.2 hPa ENE 4.8 km/h 12.9 km/h 98 % 0.25 mm
21:49 18.2 °C 17.9 °C 1018.2 hPa SE 1.6 km/h 12.9 km/h 98 % 0.25 mm
21:54 18.1 °C 17.8 °C 1018.5 hPa SE 6.4 km/h 14.5 km/h 98 % 0.25 mm
21:59 17.8 °C 17.3 °C 1018.5 hPa ENE 3.2 km/h 14.5 km/h 97 % 0.25 mm
22:04 17.7 °C 17.4 °C 1018.5 hPa Calm   14.5 km/h 98 % 0.25 mm
22:09 17.7 °C 17.2 °C 1018.5 hPa East 6.4 km/h 12.9 km/h 97 % 0.25 mm
22:14 17.6 °C 17.3 °C 1018.5 hPa East 1.6 km/h 12.9 km/h 98 % 0.25 mm
22:19 17.6 °C 17.1 °C 1018.5 hPa ENE 1.6 km/h 8 km/h 97 % 0.51 mm
22:24 17.5 °C 17 °C 1018.5 hPa North 1.6 km/h 8 km/h 97 % 0.51 mm
22:29 17.4 °C 16.9 °C 1018.8 hPa ESE 3.2 km/h 8 km/h 97 % 0.25 mm
22:34 17.4 °C 16.9 °C 1018.8 hPa East 3.2 km/h 8 km/h 97 % 0.25 mm
22:39 17.4 °C 17.1 °C 1018.8 hPa Calm   4.8 km/h 98 % 0.25 mm
22:44 17.5 °C 17.2 °C 1018.8 hPa Calm   3.2 km/h 98 % 0.25 mm
22:49 17.5 °C 17.2 °C 1018.8 hPa NE 3.2 km/h 3.2 km/h 98 % 0.25 mm
22:54 17.5 °C 17.2 °C 1018.8 hPa Calm   3.2 km/h 98 % 0.51 mm
22:59 17.6 °C 17.3 °C 1018.8 hPa Calm   3.2 km/h 98 % 0.51 mm
23:04 17.6 °C 17.3 °C 1018.8 hPa Calm   3.2 km/h 98 % 0.51 mm
23:09 17.6 °C 17.3 °C 1019.2 hPa Calm   3.2 km/h 98 % 0.51 mm
23:14 17.6 °C 17.3 °C 1019.2 hPa Calm   3.2 km/h 98 % 0.51 mm
23:19 17.6 °C 17.3 °C 1019.2 hPa Calm   3.2 km/h 98 % 0.25 mm
23:24 17.6 °C 17.3 °C 1019.2 hPa Calm   3.2 km/h 98 % 0.25 mm
23:29 17.6 °C 17.3 °C 1019.2 hPa NE 3.2 km/h 3.2 km/h 98 % 0.25 mm
23:34 17.6 °C 17.3 °C 1019.2 hPa Calm   3.2 km/h 98 % 0.51 mm
23:39 17.7 °C 17.4 °C 1018.8 hPa Calm   3.2 km/h 98 % 0.51 mm
23:44 17.7 °C 17.4 °C 1018.8 hPa Calm   3.2 km/h 98 % 0.76 mm
23:49 17.7 °C 17.4 °C 1018.8 hPa Calm   3.2 km/h 98 % 2.03 mm
23:54 17.8 °C 17.5 °C 1018.8 hPa ENE 3.2 km/h 4.8 km/h 98 % 2.03 mm
23:59 17.9 °C 17.6 °C 1018.8 hPa Calm   4.8 km/h 98 % 2.03 mm
Spring, Texas: Villages of Bridgestone
Compliments of Weather Underground - 3.25 mb

Script developed by  Jim McMurry - jmcmurry@mwt.net Adapted for the template by  Wim van der Kuil - Leuven-Template.eu

You find our weather info also at:

UK Metoffice

WeatherCloud

Weather Underground

Mid-South Weather Network

AWEKAS

Citizen Weather Observer Program (CWOP)

HAMweather, WeatherForYou, PWS Weather

Equipment we use:

Weather-station
Davis Vantage Vue

Weather-program
Meteohub

Weather-server
Debian 7.9 x86 (Guest)

Provider
DreamHost

Davis Vantage Vue

Meteohub

Debian 7.9 x86 (Guest)

DreamHost